createdAt,value
2019-05-22T00:00:30.897Z,12.20
2019-05-22T00:03:04.648Z,12.20
2019-05-22T00:05:35.540Z,12.30
2019-05-22T00:08:04.339Z,12.30
2019-05-22T00:10:33.812Z,12.30
2019-05-22T00:13:03.677Z,12.20
2019-05-22T00:15:33.563Z,12.20
2019-05-22T00:18:03.561Z,12.20
2019-05-22T00:20:31.804Z,12.20
2019-05-22T00:23:00.067Z,12.20
2019-05-22T00:25:33.105Z,12.30
2019-05-22T00:28:00.080Z,12.30
2019-05-22T00:30:29.936Z,12.20
2019-05-22T00:32:59.804Z,12.20
2019-05-22T00:35:29.004Z,12.20
2019-05-22T00:37:57.857Z,12.20
2019-05-22T00:40:28.882Z,12.20
2019-05-22T00:43:04.105Z,12.20
2019-05-22T00:45:28.676Z,12.20
2019-05-22T00:47:57.442Z,12.20
2019-05-22T00:50:32.862Z,12.20
2019-05-22T00:53:02.428Z,12.20
2019-05-22T00:55:48.419Z,12.20
2019-05-22T00:58:21.168Z,12.20
2019-05-22T01:00:53.830Z,12.20
2019-05-22T01:03:29.706Z,12.10
2019-05-22T01:05:58.996Z,12.10
2019-05-22T01:08:28.573Z,12.10
2019-05-22T01:10:57.638Z,12.10
2019-05-22T01:13:29.478Z,12.20
2019-05-22T01:15:58.554Z,12.10
2019-05-22T01:18:28.424Z,12.10
2019-05-22T01:20:58.948Z,12.10
2019-05-22T01:23:29.776Z,12.10
2019-05-22T01:26:00.000Z,12.10
2019-05-22T01:28:30.166Z,12.10
2019-05-22T01:31:02.502Z,12.10
2019-05-22T01:33:32.384Z,12.00
2019-05-22T01:36:02.241Z,12.00
2019-05-22T01:38:31.217Z,12.00
2019-05-22T01:41:01.080Z,12.00
2019-05-22T01:43:29.561Z,12.00
2019-05-22T01:45:59.501Z,12.00
2019-05-22T01:48:38.236Z,12.00
2019-05-22T01:51:07.137Z,12.10
2019-05-22T01:53:38.645Z,12.00
2019-05-22T01:56:07.867Z,12.00
2019-05-22T01:58:37.346Z,12.00
2019-05-22T02:01:07.204Z,12.00
2019-05-22T02:03:36.546Z,12.00
2019-05-22T02:06:06.081Z,12.00
2019-05-22T02:08:37.742Z,12.00
2019-05-22T02:11:07.058Z,12.00
2019-05-22T02:13:38.807Z,12.00
2019-05-22T02:16:08.971Z,12.00
2019-05-22T02:18:39.215Z,12.00
2019-05-22T02:21:07.444Z,12.00
2019-05-22T02:23:37.316Z,11.90
2019-05-22T02:26:07.174Z,12.00
2019-05-22T02:28:37.008Z,12.00
2019-05-22T02:31:06.901Z,12.00
2019-05-22T02:33:37.692Z,12.00
2019-05-22T02:36:06.631Z,12.00
2019-05-22T02:38:35.494Z,12.00
2019-05-22T02:41:04.271Z,12.00
2019-05-22T02:43:32.553Z,12.00
2019-05-22T02:46:01.717Z,12.00
2019-05-22T02:48:31.394Z,12.00
2019-05-22T02:50:59.672Z,12.00
2019-05-22T02:53:28.461Z,12.00
2019-05-22T02:55:57.142Z,12.00
2019-05-22T02:58:27.014Z,12.00
2019-05-22T03:00:58.242Z,12.00
2019-05-22T03:03:26.761Z,12.00
2019-05-22T03:05:56.195Z,12.00
2019-05-22T03:08:27.066Z,12.00
2019-05-22T03:10:56.953Z,12.00
2019-05-22T03:13:29.507Z,12.00
2019-05-22T03:15:59.376Z,11.90
2019-05-22T03:18:28.061Z,11.90
2019-05-22T03:20:56.274Z,11.90
2019-05-22T03:23:34.300Z,11.90
2019-05-22T03:26:02.585Z,11.90
2019-05-22T03:28:30.868Z,11.90
2019-05-22T03:30:59.342Z,11.90
2019-05-22T03:33:29.357Z,11.90
2019-05-22T03:36:05.045Z,11.90
2019-05-22T03:38:34.303Z,11.90
2019-05-22T03:41:03.989Z,11.90
2019-05-22T03:43:32.207Z,11.90
2019-05-22T03:46:05.313Z,11.90
2019-05-22T03:48:35.169Z,11.90
2019-05-22T03:51:11.089Z,11.90
2019-05-22T03:53:39.773Z,11.90
2019-05-22T03:56:08.064Z,11.90
2019-05-22T03:58:36.645Z,11.90
2019-05-22T04:01:06.527Z,11.90
2019-05-22T04:03:35.769Z,12.00
2019-05-22T04:06:05.230Z,12.00
2019-05-22T04:08:33.908Z,12.00
2019-05-22T04:11:03.415Z,12.00
2019-05-22T04:13:32.658Z,12.00
2019-05-22T04:16:05.430Z,12.00
2019-05-22T04:18:35.369Z,12.10
2019-05-22T04:21:04.057Z,12.10
2019-05-22T04:23:32.378Z,12.20
2019-05-22T04:26:01.703Z,12.20
2019-05-22T04:28:30.793Z,12.20
2019-05-22T04:31:00.168Z,12.10
2019-05-22T04:33:30.639Z,12.20
2019-05-22T04:35:59.485Z,12.20
2019-05-22T04:38:27.942Z,12.20
2019-05-22T04:40:56.627Z,12.10
2019-05-22T04:43:25.189Z,12.10
2019-05-22T04:45:54.073Z,12.10
2019-05-22T04:48:22.426Z,12.10
2019-05-22T04:50:51.525Z,12.10
2019-05-22T04:53:19.742Z,12.00
2019-05-22T04:55:48.184Z,12.00
2019-05-22T04:58:18.049Z,12.00
2019-05-22T05:00:46.254Z,12.10
2019-05-22T05:03:15.541Z,12.00
2019-05-22T05:05:51.111Z,12.00
2019-05-22T05:08:19.382Z,12.00
2019-05-22T05:10:49.371Z,12.00
2019-05-22T05:13:18.111Z,12.00
2019-05-22T05:15:46.348Z,12.10
2019-05-22T05:18:14.543Z,12.10
2019-05-22T05:20:43.808Z,12.10
2019-05-22T05:23:12.385Z,12.10
2019-05-22T05:25:40.607Z,12.10
2019-05-22T05:28:10.456Z,12.10
2019-05-22T05:30:38.946Z,12.20
2019-05-22T05:33:07.154Z,12.20
2019-05-22T05:35:36.245Z,12.20
2019-05-22T05:38:04.717Z,12.30
2019-05-22T05:40:40.275Z,12.30
2019-05-22T05:43:09.894Z,12.30
2019-05-22T05:45:40.092Z,12.40
2019-05-22T05:48:10.236Z,12.50
2019-05-22T05:50:40.657Z,12.60
2019-05-22T05:53:09.909Z,12.60
2019-05-22T05:56:02.381Z,12.70
2019-05-22T05:58:30.751Z,12.80
2019-05-22T06:01:06.665Z,12.90
2019-05-22T06:03:37.847Z,13.00
2019-05-22T06:06:24.302Z,13.10
2019-05-22T06:08:53.296Z,13.20
2019-05-22T06:11:43.320Z,13.30
2019-05-22T06:14:29.803Z,13.30
2019-05-22T06:17:04.808Z,13.40
2019-05-22T06:19:33.319Z,13.50
2019-05-22T06:22:01.578Z,13.50
2019-05-22T06:24:36.648Z,13.50
2019-05-22T06:27:16.287Z,13.50
2019-05-22T06:29:51.385Z,13.50
2019-05-22T06:32:39.169Z,13.40
2019-05-22T06:35:07.660Z,13.30
2019-05-22T06:37:44.699Z,13.20
2019-05-22T06:40:14.684Z,13.20
2019-05-22T06:42:44.802Z,13.10
2019-05-22T06:45:13.100Z,13.20
2019-05-22T06:47:41.569Z,13.20
2019-05-22T06:50:09.776Z,13.30
2019-05-22T06:52:38.005Z,13.30
2019-05-22T06:55:06.923Z,13.30
2019-05-22T06:57:35.139Z,13.40
2019-05-22T07:00:14.294Z,13.30
2019-05-22T07:02:36.410Z,13.30
2019-05-22T07:05:05.792Z,13.30
2019-05-22T07:07:34.364Z,13.30
2019-05-22T07:10:03.643Z,13.40
2019-05-22T07:12:32.928Z,13.40
2019-05-22T07:15:08.954Z,13.40
2019-05-22T07:17:37.338Z,13.50
2019-05-22T07:20:06.522Z,13.60
2019-05-22T07:22:35.337Z,13.70
2019-05-22T07:25:05.955Z,13.80
2019-05-22T07:27:33.677Z,13.80
2019-05-22T07:30:02.540Z,13.80
2019-05-22T07:32:31.230Z,13.80
2019-05-22T07:34:59.513Z,13.70
2019-05-22T07:37:27.717Z,13.70
2019-05-22T07:39:55.929Z,13.70
2019-05-22T07:42:24.159Z,13.70
2019-05-22T07:44:52.441Z,13.70
2019-05-22T07:47:21.892Z,13.70
2019-05-22T07:49:50.156Z,13.70
2019-05-22T07:52:18.378Z,13.80
2019-05-22T07:54:46.634Z,13.70
2019-05-22T07:57:20.682Z,13.70
2019-05-22T07:59:49.068Z,13.60
2019-05-22T08:02:17.637Z,13.60
2019-05-22T08:04:45.856Z,13.60
2019-05-22T08:07:15.628Z,13.70
2019-05-22T08:09:43.871Z,13.60
2019-05-22T08:12:12.801Z,13.50
2019-05-22T08:14:41.038Z,13.60
2019-05-22T08:17:09.264Z,13.50
2019-05-22T08:19:37.539Z,13.50
2019-05-22T08:22:07.584Z,13.50
2019-05-22T08:24:35.752Z,13.60
2019-05-22T08:27:05.092Z,13.70
2019-05-22T08:29:33.295Z,13.60
2019-05-22T08:32:01.503Z,13.60
2019-05-22T08:34:30.073Z,13.60
2019-05-22T08:36:58.456Z,13.70
2019-05-22T08:39:27.335Z,13.80
2019-05-22T08:41:55.560Z,13.80
2019-05-22T08:44:23.940Z,13.80
2019-05-22T08:46:52.176Z,13.80
2019-05-22T08:49:20.399Z,13.50
2019-05-22T08:51:48.736Z,13.30
2019-05-22T08:54:17.889Z,13.20
2019-05-22T08:56:48.364Z,13.10
2019-05-22T08:59:19.891Z,13.10
2019-05-22T09:01:47.923Z,13.10
2019-05-22T09:04:16.201Z,13.20
2019-05-22T09:06:44.480Z,13.30
2019-05-22T09:09:12.755Z,13.30
2019-05-22T09:11:41.019Z,13.40
2019-05-22T09:14:09.340Z,13.40
2019-05-22T09:16:37.532Z,13.40
2019-05-22T09:19:06.438Z,13.50
2019-05-22T09:21:35.351Z,13.60
2019-05-22T09:24:05.244Z,13.60
2019-05-22T09:26:33.452Z,13.70
2019-05-22T09:29:01.948Z,13.90
2019-05-22T09:31:30.164Z,13.90
2019-05-22T09:33:58.865Z,14.00
2019-05-22T09:36:27.115Z,14.10
2019-05-22T09:38:55.321Z,14.40
2019-05-22T09:41:23.536Z,14.60
2019-05-22T09:43:51.731Z,14.80
2019-05-22T09:46:20.023Z,14.70
2019-05-22T09:48:48.501Z,14.50
2019-05-22T09:51:16.783Z,14.20
2019-05-22T09:56:13.215Z,13.90
2019-05-22T09:58:41.481Z,13.80
2019-05-22T10:01:12.157Z,13.70
2019-05-22T10:03:40.448Z,13.70
2019-05-22T10:06:09.125Z,13.70
2019-05-22T10:08:37.514Z,13.70
2019-05-22T10:11:05.722Z,13.80
2019-05-22T10:13:34.410Z,13.90
2019-05-22T10:16:02.648Z,13.90
2019-05-22T10:18:30.916Z,13.90
2019-05-22T10:20:59.450Z,14.10
2019-05-22T10:23:28.356Z,14.10
2019-05-22T10:25:56.563Z,13.90
2019-05-22T10:28:24.859Z,14.00
2019-05-22T10:30:54.210Z,14.10
2019-05-22T10:33:23.213Z,14.50
2019-05-22T10:35:52.319Z,14.80
2019-05-22T10:38:20.522Z,15.20
2019-05-22T10:40:48.737Z,15.40
2019-05-22T10:43:17.214Z,15.70
2019-05-22T10:45:46.184Z,16.00
2019-05-22T10:48:14.388Z,16.40
2019-05-22T10:50:42.871Z,16.80
2019-05-22T10:53:11.089Z,16.90
2019-05-22T10:55:39.565Z,17.20
2019-05-22T10:58:07.939Z,17.10
2019-05-22T11:00:36.855Z,16.90
2019-05-22T11:03:05.411Z,17.00
2019-05-22T11:05:34.396Z,16.90
2019-05-22T11:08:02.679Z,16.80
2019-05-22T11:10:31.247Z,16.70
2019-05-22T11:13:00.799Z,16.70
2019-05-22T11:15:29.803Z,16.90
2019-05-22T11:17:58.053Z,17.20
2019-05-22T11:20:26.276Z,17.30
2019-05-22T11:22:54.489Z,17.40
2019-05-22T11:25:23.274Z,17.70
2019-05-22T11:27:52.486Z,17.70
2019-05-22T11:30:20.707Z,18.00
2019-05-22T11:32:48.982Z,18.10
2019-05-22T11:35:17.187Z,18.70
2019-05-22T11:37:45.473Z,20.50
2019-05-22T11:40:14.109Z,21.80
2019-05-22T11:45:13.016Z,21.50
2019-05-22T11:47:41.284Z,21.40
2019-05-22T11:50:11.902Z,21.70
2019-05-22T11:52:40.562Z,21.30
2019-05-22T11:55:09.157Z,21.00
2019-05-22T11:57:38.824Z,21.00
2019-05-22T12:00:09.360Z,20.10
2019-05-22T12:02:38.696Z,20.20
2019-05-22T12:05:07.257Z,20.40
2019-05-22T12:07:36.400Z,20.50
2019-05-22T12:10:05.823Z,21.10
2019-05-22T12:12:35.455Z,20.90
2019-05-22T12:15:07.000Z,20.00
2019-05-22T12:17:38.510Z,19.90
2019-05-22T12:20:10.089Z,19.90
2019-05-22T12:22:38.584Z,19.90
2019-05-22T12:25:09.013Z,19.80
2019-05-22T12:27:37.296Z,19.70
2019-05-22T12:30:07.994Z,19.90
2019-05-22T12:32:36.286Z,20.20
2019-05-22T12:35:06.224Z,20.50
2019-05-22T12:37:35.045Z,20.30
2019-05-22T12:40:04.994Z,20.70
2019-05-22T12:42:33.192Z,20.50
2019-05-22T12:45:01.420Z,20.40
2019-05-22T12:47:30.263Z,20.00
2019-05-22T12:49:58.473Z,20.00
2019-05-22T12:52:26.953Z,20.30
2019-05-22T12:54:55.164Z,20.40
2019-05-22T12:57:23.643Z,20.60
2019-05-22T12:59:52.496Z,21.20
2019-05-22T13:02:20.703Z,20.90
2019-05-22T13:04:49.191Z,20.30
2019-05-22T13:07:17.538Z,20.10
2019-05-22T13:09:45.769Z,20.10
2019-05-22T13:12:14.657Z,21.10
2019-05-22T13:14:43.420Z,21.90
2019-05-22T13:17:12.620Z,22.10
2019-05-22T13:19:41.561Z,22.10
2019-05-22T13:22:12.542Z,22.10
2019-05-22T13:24:40.743Z,22.90
2019-05-22T13:27:11.299Z,23.30
2019-05-22T13:29:40.561Z,23.60
2019-05-22T13:32:08.915Z,23.30
2019-05-22T13:34:37.588Z,22.20
2019-05-22T13:37:06.409Z,22.30
2019-05-22T13:39:34.897Z,22.60
2019-05-22T13:42:03.173Z,22.40
2019-05-22T13:44:31.390Z,21.90
2019-05-22T13:46:59.588Z,21.60
2019-05-22T13:49:29.460Z,21.90
2019-05-22T13:51:57.656Z,22.50
2019-05-22T13:54:26.234Z,23.20
2019-05-22T13:56:55.094Z,23.20
2019-05-22T13:59:23.583Z,23.50
2019-05-22T14:01:51.861Z,23.70
2019-05-22T14:04:20.076Z,23.70
2019-05-22T14:06:48.452Z,23.90
2019-05-22T14:09:21.159Z,24.50
2019-05-22T14:11:49.104Z,24.40
2019-05-22T14:14:17.308Z,24.60
2019-05-22T14:16:48.989Z,24.70
2019-05-22T14:19:15.463Z,24.90
2019-05-22T14:21:50.967Z,23.90
2019-05-22T14:24:13.627Z,22.70
2019-05-22T14:26:42.012Z,22.70
2019-05-22T14:29:10.236Z,23.00
2019-05-22T14:31:38.450Z,23.40
2019-05-22T14:34:07.133Z,23.10
2019-05-22T14:36:35.811Z,23.50
2019-05-22T14:39:07.239Z,23.90
2019-05-22T14:41:35.446Z,23.90
2019-05-22T14:44:03.666Z,23.80
2019-05-22T14:46:32.052Z,23.50
2019-05-22T14:49:00.267Z,23.60
2019-05-22T14:51:28.539Z,23.10
2019-05-22T14:53:57.046Z,23.40
2019-05-22T14:56:25.233Z,23.80
2019-05-22T14:58:54.073Z,23.30
2019-05-22T15:01:22.276Z,23.20
2019-05-22T15:03:50.552Z,22.70
2019-05-22T15:06:19.291Z,22.30
2019-05-22T15:11:16.733Z,20.90
2019-05-22T15:13:45.208Z,20.90
2019-05-22T15:16:13.692Z,20.60
2019-05-22T15:18:41.990Z,21.20
2019-05-22T15:21:11.269Z,21.70
2019-05-22T15:23:39.885Z,21.50
2019-05-22T15:26:08.167Z,21.20
2019-05-22T15:28:36.440Z,20.90
2019-05-22T15:31:04.652Z,20.70
2019-05-22T15:33:33.951Z,20.20
2019-05-22T15:36:06.716Z,19.70
2019-05-22T15:38:36.377Z,19.20
2019-05-22T15:41:04.940Z,19.10
2019-05-22T15:43:33.326Z,19.00
2019-05-22T15:46:02.494Z,19.60
2019-05-22T15:48:31.498Z,20.60
2019-05-22T15:51:03.740Z,21.50
2019-05-22T15:53:32.315Z,21.10
2019-05-22T15:56:04.208Z,20.60
2019-05-22T15:58:33.741Z,20.10
2019-05-22T16:01:02.756Z,19.80
2019-05-22T16:03:30.958Z,19.60
2019-05-22T16:05:59.644Z,19.60
2019-05-22T16:08:28.557Z,20.20
2019-05-22T16:11:00.010Z,21.40
2019-05-22T16:13:26.713Z,22.50
2019-05-22T16:15:55.532Z,22.60
2019-05-22T16:18:29.268Z,22.10
2019-05-22T16:20:59.108Z,21.70
2019-05-22T16:23:28.834Z,20.90
2019-05-22T16:25:57.048Z,20.40
2019-05-22T16:28:25.420Z,20.00
2019-05-22T16:30:53.634Z,19.70
2019-05-22T16:33:22.848Z,19.40
2019-05-22T16:35:51.033Z,19.40
2019-05-22T16:38:19.628Z,19.20
2019-05-22T16:40:47.915Z,19.00
2019-05-22T16:43:16.204Z,18.90
2019-05-22T16:45:44.500Z,18.90
2019-05-22T16:48:27.663Z,18.80
2019-05-22T16:50:42.932Z,18.80
2019-05-22T16:53:11.992Z,18.80
